createdAt,value
2022-12-14T00:01:16.728Z,21.50
2022-12-14T00:03:43.885Z,21.13
2022-12-14T00:06:12.420Z,20.17
2022-12-14T00:08:41.857Z,21.97
2022-12-14T00:11:09.591Z,20.47
2022-12-14T00:13:37.140Z,19.93
2022-12-14T00:16:13.211Z,20.17
2022-12-14T00:18:40.891Z,20.00
2022-12-14T00:21:09.921Z,20.63
2022-12-14T00:23:39.292Z,20.70
2022-12-14T00:26:18.972Z,21.23
2022-12-14T00:28:46.489Z,20.03
2022-12-14T00:31:13.692Z,22.23
2022-12-14T00:33:40.459Z,20.13
2022-12-14T00:36:08.252Z,21.07
2022-12-14T00:38:34.995Z,20.37
2022-12-14T00:41:01.967Z,20.30
2022-12-14T00:43:28.489Z,19.83
2022-12-14T00:45:55.033Z,18.33
2022-12-14T00:48:23.731Z,20.53
2022-12-14T00:50:51.804Z,19.87
2022-12-14T00:53:19.612Z,21.07
2022-12-14T00:55:49.318Z,20.73
2022-12-14T00:58:19.139Z,20.20
2022-12-14T01:00:45.770Z,20.73
2022-12-14T01:03:12.994Z,19.87
2022-12-14T01:05:39.935Z,20.40
2022-12-14T01:08:07.206Z,20.03
2022-12-14T01:10:33.688Z,20.20
2022-12-14T01:13:00.115Z,20.13
2022-12-14T01:15:26.555Z,20.50
2022-12-14T01:17:53.066Z,20.57
2022-12-14T01:20:19.558Z,19.77
2022-12-14T01:22:46.058Z,21.00
2022-12-14T01:25:12.736Z,19.57
2022-12-14T01:27:39.183Z,20.30
2022-12-14T01:30:05.978Z,20.37
2022-12-14T01:32:34.410Z,21.00
2022-12-14T01:35:00.808Z,19.53
2022-12-14T01:37:27.214Z,19.97
2022-12-14T01:39:53.633Z,20.17
2022-12-14T01:42:20.075Z,21.00
2022-12-14T01:44:53.124Z,22.63
2022-12-14T01:47:30.484Z,20.70
2022-12-14T01:50:05.231Z,20.00
2022-12-14T01:52:52.377Z,20.53
2022-12-14T01:55:23.576Z,19.00
2022-12-14T01:57:58.229Z,19.30
2022-12-14T02:00:24.694Z,19.37
2022-12-14T02:02:58.669Z,18.63
2022-12-14T02:05:25.698Z,19.70
2022-12-14T02:07:54.044Z,17.80
2022-12-14T02:10:21.501Z,18.23
2022-12-14T02:13:00.703Z,19.57
2022-12-14T02:15:27.619Z,18.80
2022-12-14T02:17:54.124Z,18.57
2022-12-14T02:20:21.787Z,19.70
2022-12-14T02:23:03.379Z,18.77
2022-12-14T02:25:45.057Z,18.30
2022-12-14T02:28:44.936Z,18.87
2022-12-14T02:31:31.818Z,18.50
2022-12-14T02:34:05.805Z,18.00
2022-12-14T02:37:01.429Z,19.13
2022-12-14T02:39:33.794Z,18.17
2022-12-14T02:42:24.433Z,17.30
2022-12-14T02:45:06.230Z,17.43
2022-12-14T02:47:40.450Z,18.47
2022-12-14T02:50:12.735Z,18.30
2022-12-14T02:52:47.041Z,18.67
2022-12-14T02:55:37.088Z,17.83
2022-12-14T02:58:07.150Z,17.47
2022-12-14T03:00:35.083Z,18.03
2022-12-14T03:03:02.075Z,17.60
2022-12-14T03:05:28.836Z,18.67
2022-12-14T03:08:06.417Z,18.33
2022-12-14T03:10:44.015Z,18.63
2022-12-14T03:13:19.930Z,18.13
2022-12-14T03:15:50.648Z,18.13
2022-12-14T03:18:18.788Z,18.27
2022-12-14T03:20:48.358Z,18.00
2022-12-14T03:23:20.863Z,16.80
2022-12-14T03:26:05.345Z,17.40
2022-12-14T03:29:01.048Z,16.67
2022-12-14T03:31:35.182Z,17.50
2022-12-14T03:34:04.025Z,17.47
2022-12-14T03:36:36.084Z,17.37
2022-12-14T03:39:04.607Z,16.60
2022-12-14T03:41:38.449Z,16.60
2022-12-14T03:44:26.693Z,16.73
2022-12-14T03:46:57.684Z,16.60
2022-12-14T03:49:53.064Z,16.97
2022-12-14T03:52:35.628Z,17.47
2022-12-14T03:55:16.642Z,17.57
2022-12-14T03:57:57.011Z,16.33
2022-12-14T04:00:24.884Z,16.73
2022-12-14T04:03:27.403Z,16.17
2022-12-14T04:06:05.318Z,16.30
2022-12-14T04:08:41.640Z,16.13
2022-12-14T04:11:30.305Z,16.10
2022-12-14T04:14:25.441Z,16.43
2022-12-14T04:17:10.670Z,15.83
2022-12-14T04:19:45.927Z,15.67
2022-12-14T04:22:18.718Z,17.67
2022-12-14T04:25:26.765Z,16.07
2022-12-14T04:28:53.714Z,16.20
2022-12-14T04:31:21.574Z,15.67
2022-12-14T04:33:53.288Z,14.80
2022-12-14T04:36:30.340Z,16.47
2022-12-14T04:39:03.102Z,16.83
2022-12-14T04:41:34.627Z,15.73
2022-12-14T04:44:06.019Z,16.60
2022-12-14T04:46:40.295Z,15.50
2022-12-14T04:49:35.069Z,16.50
2022-12-14T04:52:21.911Z,16.80
2022-12-14T04:55:12.463Z,16.30
2022-12-14T04:57:54.707Z,16.37
2022-12-14T05:00:21.147Z,17.30
2022-12-14T05:03:01.278Z,16.43
2022-12-14T05:05:44.035Z,15.53
2022-12-14T05:08:17.616Z,16.13
2022-12-14T05:10:48.608Z,16.07
2022-12-14T05:13:20.814Z,15.53
2022-12-14T05:15:50.603Z,17.10
2022-12-14T05:18:17.492Z,16.83
2022-12-14T05:20:43.901Z,16.03
2022-12-14T05:23:10.302Z,16.57
2022-12-14T05:25:36.754Z,16.50
2022-12-14T05:28:03.280Z,15.20
2022-12-14T05:30:30.077Z,15.47
2022-12-14T05:32:56.590Z,16.03
2022-12-14T05:35:23.223Z,16.23
2022-12-14T05:37:49.674Z,15.30
2022-12-14T05:40:16.473Z,15.37
2022-12-14T05:42:46.104Z,15.37
2022-12-14T05:45:14.220Z,15.83
2022-12-14T05:47:40.664Z,14.70
2022-12-14T05:50:07.699Z,14.10
2022-12-14T05:52:34.276Z,14.87
2022-12-14T05:55:04.183Z,15.03
2022-12-14T05:57:31.477Z,16.60
2022-12-14T05:59:57.912Z,15.40
2022-12-14T06:02:27.524Z,14.57
2022-12-14T06:04:54.044Z,14.40
2022-12-14T06:07:25.914Z,15.60
2022-12-14T06:09:53.984Z,15.83
2022-12-14T06:12:20.436Z,14.03
2022-12-14T06:14:46.951Z,15.87
2022-12-14T06:17:13.392Z,15.23
2022-12-14T06:19:39.806Z,14.67
2022-12-14T06:22:06.281Z,15.63
2022-12-14T06:24:32.744Z,15.13
2022-12-14T06:26:59.216Z,15.37
2022-12-14T06:29:26.132Z,14.77
2022-12-14T06:31:52.715Z,13.70
2022-12-14T06:34:21.299Z,14.50
2022-12-14T06:36:51.534Z,13.67
2022-12-14T06:39:18.005Z,13.60
2022-12-14T06:41:44.744Z,13.77
2022-12-14T06:44:13.321Z,14.87
2022-12-14T06:46:40.492Z,15.50
2022-12-14T06:49:07.332Z,14.27
2022-12-14T06:51:39.608Z,14.40
2022-12-14T06:54:06.403Z,14.03
2022-12-14T06:56:33.324Z,14.07
2022-12-14T06:58:59.738Z,13.97
2022-12-14T07:01:26.350Z,15.73
2022-12-14T07:03:55.128Z,13.63
2022-12-14T07:06:22.680Z,14.27
2022-12-14T07:08:49.576Z,13.07
2022-12-14T07:11:17.014Z,13.00
2022-12-14T07:13:43.790Z,13.47
2022-12-14T07:16:21.149Z,14.90
2022-12-14T07:18:48.108Z,14.10
2022-12-14T07:21:15.759Z,14.27
2022-12-14T07:23:43.645Z,14.07
2022-12-14T07:26:16.191Z,14.10
2022-12-14T07:28:44.618Z,14.13
2022-12-14T07:31:19.671Z,13.60
2022-12-14T07:33:46.469Z,13.30
2022-12-14T07:36:19.292Z,13.57
2022-12-14T07:38:48.047Z,14.00
2022-12-14T07:41:23.797Z,14.37
2022-12-14T07:43:51.792Z,13.73
2022-12-14T07:46:21.159Z,12.87
2022-12-14T07:48:49.593Z,14.17
2022-12-14T07:51:17.998Z,14.60
2022-12-14T07:53:44.546Z,13.13
2022-12-14T07:56:13.012Z,13.43
2022-12-14T07:58:39.550Z,16.20
2022-12-14T08:01:16.290Z,14.00
2022-12-14T08:03:45.675Z,14.43
2022-12-14T08:06:13.609Z,14.87
2022-12-14T08:08:41.030Z,15.03
2022-12-14T08:11:08.257Z,13.67
2022-12-14T08:13:34.951Z,14.13
2022-12-14T08:16:11.217Z,13.87
2022-12-14T08:18:37.993Z,14.60
2022-12-14T08:21:06.460Z,14.03
2022-12-14T08:23:33.820Z,13.63
2022-12-14T08:26:01.258Z,14.03
2022-12-14T08:28:29.094Z,14.60
2022-12-14T08:30:55.938Z,22.30
2022-12-14T08:33:24.453Z,17.37
2022-12-14T08:35:50.914Z,17.50
2022-12-14T08:38:17.812Z,15.30
2022-12-14T08:40:44.212Z,13.67
2022-12-14T08:43:10.692Z,14.03
2022-12-14T08:45:37.122Z,14.40
2022-12-14T08:48:04.689Z,14.67
2022-12-14T08:50:31.230Z,15.03
2022-12-14T08:52:57.940Z,14.43
2022-12-14T08:55:29.201Z,15.13
2022-12-14T08:57:58.186Z,14.73
2022-12-14T09:00:24.762Z,15.67
2022-12-14T09:02:51.538Z,16.33
2022-12-14T09:05:18.120Z,14.87
2022-12-14T09:07:45.636Z,15.50
2022-12-14T09:10:13.754Z,15.13
2022-12-14T09:12:40.730Z,15.10
2022-12-14T09:15:08.178Z,14.43
2022-12-14T09:17:34.753Z,14.50
2022-12-14T09:20:01.235Z,15.60
2022-12-14T09:22:27.761Z,15.73
2022-12-14T09:24:54.538Z,15.03
2022-12-14T09:27:22.378Z,14.90
2022-12-14T09:29:49.863Z,15.43
2022-12-14T09:32:16.945Z,16.37
2022-12-14T09:34:43.382Z,15.40
2022-12-14T09:37:10.310Z,16.27
2022-12-14T09:39:36.912Z,14.87
2022-12-14T09:42:38.049Z,15.20
2022-12-14T09:45:04.518Z,14.93
2022-12-14T09:48:17.028Z,14.77
2022-12-14T09:50:47.299Z,14.53
2022-12-14T09:53:14.667Z,14.07
2022-12-14T09:55:50.203Z,14.63
2022-12-14T09:58:20.268Z,14.47
2022-12-14T10:00:53.784Z,13.50
2022-12-14T10:03:49.897Z,13.57
2022-12-14T10:06:39.295Z,13.20
2022-12-14T10:09:38.615Z,13.97
2022-12-14T10:12:22.056Z,14.63
2022-12-14T10:14:58.955Z,14.03
2022-12-14T10:18:03.462Z,13.87
2022-12-14T10:20:37.540Z,13.13
2022-12-14T10:23:04.175Z,13.67
2022-12-14T10:25:35.846Z,13.07
2022-12-14T10:28:20.593Z,12.37
2022-12-14T10:30:48.370Z,12.87
2022-12-14T10:33:29.452Z,12.90
2022-12-14T10:36:00.200Z,12.80
2022-12-14T10:38:49.927Z,12.97
2022-12-14T10:41:49.567Z,13.07
2022-12-14T10:44:31.109Z,13.43
2022-12-14T10:47:13.780Z,13.47
2022-12-14T10:49:47.155Z,12.17
2022-12-14T10:52:22.959Z,12.33
2022-12-14T10:54:54.682Z,12.17
2022-12-14T10:57:27.604Z,13.37
2022-12-14T11:00:07.715Z,13.50
2022-12-14T11:02:40.022Z,12.67
2022-12-14T11:05:32.526Z,13.07
2022-12-14T11:08:02.538Z,14.33
2022-12-14T11:10:31.378Z,13.47
2022-12-14T11:13:05.793Z,12.43
2022-12-14T11:15:37.067Z,12.17
2022-12-14T11:18:15.674Z,12.73
2022-12-14T11:20:56.477Z,13.50
2022-12-14T11:23:37.880Z,13.33
2022-12-14T11:26:13.601Z,12.70
2022-12-14T11:28:49.916Z,15.87
2022-12-14T11:31:24.797Z,13.50
2022-12-14T11:33:52.884Z,14.23
2022-12-14T11:36:34.478Z,13.27
2022-12-14T11:39:13.298Z,13.73
2022-12-14T11:41:46.837Z,12.63
2022-12-14T11:44:16.193Z,14.53
2022-12-14T11:46:57.890Z,15.57
2022-12-14T11:49:39.514Z,14.93
2022-12-14T11:52:06.056Z,17.33
2022-12-14T11:54:33.129Z,14.60
2022-12-14T11:57:04.254Z,13.40
2022-12-14T11:59:45.253Z,14.67
2022-12-14T12:02:17.872Z,13.47
2022-12-14T12:04:56.145Z,12.57
2022-12-14T12:07:29.762Z,15.27
2022-12-14T12:10:01.446Z,13.50
2022-12-14T12:12:28.177Z,12.43
2022-12-14T12:14:55.888Z,12.27
2022-12-14T12:17:37.884Z,13.23
2022-12-14T12:20:13.029Z,14.17
2022-12-14T12:22:43.564Z,12.27
2022-12-14T12:25:26.669Z,12.83
2022-12-14T12:28:04.475Z,12.50
2022-12-14T12:30:33.616Z,12.17
2022-12-14T12:33:21.911Z,12.80
2022-12-14T12:35:54.710Z,12.47
2022-12-14T12:38:42.114Z,12.97
2022-12-14T12:41:25.813Z,13.63
2022-12-14T12:43:56.419Z,13.90
2022-12-14T12:46:33.561Z,13.73
2022-12-14T12:49:10.183Z,12.50
2022-12-14T12:51:46.156Z,14.37
2022-12-14T12:54:18.035Z,13.50
2022-12-14T12:56:48.118Z,13.07
2022-12-14T12:59:46.669Z,12.80
2022-12-14T13:02:30.516Z,12.07
2022-12-14T13:05:10.868Z,12.67
2022-12-14T13:07:49.536Z,11.93
2022-12-14T13:10:21.193Z,13.57
2022-12-14T13:12:50.362Z,13.23
2022-12-14T13:15:29.815Z,15.10
2022-12-14T13:18:41.200Z,13.13
2022-12-14T13:21:34.954Z,12.13
2022-12-14T13:24:02.881Z,12.90
2022-12-14T13:27:03.000Z,13.23
2022-12-14T13:30:14.611Z,12.90
2022-12-14T13:32:44.138Z,13.13
2022-12-14T13:35:44.503Z,14.83
2022-12-14T13:38:53.129Z,12.33
2022-12-14T13:41:28.085Z,12.63
2022-12-14T13:44:15.865Z,11.97
2022-12-14T13:46:42.878Z,12.97
2022-12-14T13:49:19.824Z,12.03
2022-12-14T13:51:50.185Z,12.23
2022-12-14T13:54:27.577Z,12.27
2022-12-14T13:57:13.692Z,12.33
2022-12-14T13:59:42.793Z,12.93
2022-12-14T14:02:29.432Z,12.63
2022-12-14T14:05:15.612Z,11.97
2022-12-14T14:07:58.860Z,12.20
2022-12-14T14:10:37.943Z,11.47
2022-12-14T14:13:27.467Z,12.37
2022-12-14T14:16:26.819Z,12.83
2022-12-14T14:18:55.416Z,12.17
2022-12-14T14:21:21.800Z,11.50
2022-12-14T14:24:01.038Z,12.83
2022-12-14T14:26:34.765Z,12.63
2022-12-14T14:29:26.851Z,12.37
2022-12-14T14:32:00.524Z,13.57
2022-12-14T14:34:30.198Z,11.07
2022-12-14T14:36:56.776Z,11.27
2022-12-14T14:42:26.096Z,11.97
2022-12-14T14:44:58.941Z,12.43
2022-12-14T14:47:31.582Z,12.30
2022-12-14T14:50:00.875Z,11.97
2022-12-14T14:52:39.728Z,11.43
2022-12-14T14:55:53.187Z,12.17
2022-12-14T14:58:28.154Z,11.73
2022-12-14T15:01:02.006Z,12.27
2022-12-14T15:03:35.378Z,11.33
2022-12-14T15:06:01.921Z,12.10
2022-12-14T15:08:34.778Z,11.77
2022-12-14T15:11:05.319Z,12.70
2022-12-14T15:13:48.191Z,12.73
2022-12-14T15:16:41.786Z,12.50
2022-12-14T15:19:22.352Z,11.13
2022-12-14T15:21:51.434Z,11.27
2022-12-14T15:24:18.014Z,12.17
2022-12-14T15:26:44.508Z,12.47
2022-12-14T15:29:17.889Z,13.23
2022-12-14T15:31:44.820Z,12.10
2022-12-14T15:34:17.548Z,12.40
2022-12-14T15:36:44.286Z,12.77
2022-12-14T15:39:42.179Z,12.60
2022-12-14T15:42:15.166Z,13.23
2022-12-14T15:44:52.467Z,13.70
2022-12-14T15:47:28.550Z,12.30
2022-12-14T15:50:00.507Z,12.67
2022-12-14T15:52:30.716Z,13.63
2022-12-14T15:54:58.508Z,12.83
2022-12-14T15:57:25.495Z,12.63
2022-12-14T15:59:54.592Z,12.77
2022-12-14T16:02:21.078Z,13.17
2022-12-14T16:04:48.321Z,13.13
2022-12-14T16:07:19.072Z,12.67
2022-12-14T16:09:50.162Z,12.63
2022-12-14T16:12:21.687Z,13.23
2022-12-14T16:15:20.922Z,13.87
2022-12-14T16:17:47.660Z,13.07
2022-12-14T16:20:14.609Z,13.17
2022-12-14T16:22:41.456Z,12.33
2022-12-14T16:25:11.796Z,13.73
2022-12-14T16:27:42.713Z,13.83
2022-12-14T16:30:19.991Z,14.03
2022-12-14T16:32:50.054Z,13.30
2022-12-14T16:35:25.334Z,15.07
2022-12-14T16:37:58.176Z,15.63
2022-12-14T16:40:30.725Z,15.37
2022-12-14T16:42:57.316Z,14.70
2022-12-14T16:45:36.244Z,16.23
2022-12-14T16:48:14.534Z,14.80
2022-12-14T16:50:57.374Z,15.13
2022-12-14T16:53:29.585Z,15.33
2022-12-14T16:56:01.738Z,14.73
2022-12-14T16:58:28.346Z,14.20
2022-12-14T17:01:00.482Z,13.83
2022-12-14T17:03:28.504Z,14.07
2022-12-14T17:06:01.980Z,14.33
2022-12-14T17:08:28.968Z,13.83
2022-12-14T17:10:55.398Z,14.10
2022-12-14T17:13:21.810Z,14.37
2022-12-14T17:16:04.661Z,14.93
2022-12-14T17:18:43.101Z,15.23
2022-12-14T17:21:17.995Z,16.43
2022-12-14T17:23:44.754Z,16.60
2022-12-14T17:26:23.557Z,16.97
2022-12-14T17:28:50.394Z,17.30
2022-12-14T17:31:22.484Z,16.40
2022-12-14T17:33:51.054Z,16.70
2022-12-14T17:36:17.806Z,16.30
2022-12-14T17:38:44.640Z,15.93
2022-12-14T17:41:16.668Z,17.97
2022-12-14T17:43:49.939Z,15.67
2022-12-14T17:46:17.682Z,16.73
2022-12-14T17:48:44.116Z,17.23
2022-12-14T17:51:20.018Z,17.67
2022-12-14T17:53:46.638Z,16.70
2022-12-14T17:56:13.013Z,16.87
2022-12-14T17:58:39.468Z,15.63
2022-12-14T18:01:07.409Z,17.10
2022-12-14T18:03:37.370Z,17.20
2022-12-14T18:06:04.619Z,17.47
2022-12-14T18:08:31.110Z,16.27
2022-12-14T18:11:07.556Z,16.57
2022-12-14T18:13:38.427Z,17.93
2022-12-14T18:16:05.315Z,18.00
2022-12-14T18:18:31.912Z,16.83
2022-12-14T18:21:01.001Z,14.93
2022-12-14T18:23:29.906Z,16.80
2022-12-14T18:25:58.426Z,17.07
2022-12-14T18:28:24.884Z,16.23
2022-12-14T18:30:55.343Z,16.20
2022-12-14T18:33:24.147Z,17.67
2022-12-14T18:35:52.009Z,17.70
2022-12-14T18:38:18.591Z,18.70
2022-12-14T18:40:49.737Z,17.50
2022-12-14T18:43:24.932Z,18.33
2022-12-14T18:45:53.100Z,17.27
2022-12-14T18:48:20.536Z,17.97
2022-12-14T18:50:49.756Z,17.83
2022-12-14T18:53:18.433Z,18.07
2022-12-14T18:55:45.046Z,18.07
2022-12-14T18:58:25.816Z,18.10
2022-12-14T19:00:54.877Z,18.83
2022-12-14T19:03:23.138Z,18.60
2022-12-14T19:05:50.173Z,19.20
2022-12-14T19:08:17.196Z,19.27
2022-12-14T19:10:46.320Z,19.23
2022-12-14T19:13:25.852Z,18.87
2022-12-14T19:15:54.116Z,18.53
2022-12-14T19:18:20.682Z,17.70
2022-12-14T19:20:49.361Z,19.20
2022-12-14T19:23:17.306Z,19.87
2022-12-14T19:25:44.080Z,19.80
2022-12-14T19:28:30.808Z,19.33
2022-12-14T19:30:58.192Z,19.07
2022-12-14T19:33:25.522Z,19.27
2022-12-14T19:35:52.587Z,18.77
2022-12-14T19:38:19.219Z,17.93
2022-12-14T19:41:04.161Z,17.77
2022-12-14T19:43:31.051Z,17.83
2022-12-14T19:45:57.908Z,17.57
2022-12-14T19:48:24.563Z,20.13
2022-12-14T19:50:51.138Z,19.90
2022-12-14T19:53:23.266Z,18.97
2022-12-14T19:55:52.443Z,18.97
2022-12-14T19:58:21.712Z,19.17
2022-12-14T20:00:49.017Z,19.50
2022-12-14T20:03:15.567Z,18.57
2022-12-14T20:05:49.390Z,18.97
2022-12-14T20:08:15.825Z,18.40
2022-12-14T20:10:42.338Z,18.83
2022-12-14T20:13:08.756Z,17.97
2022-12-14T20:15:35.250Z,17.93
2022-12-14T20:18:04.625Z,18.23
2022-12-14T20:20:32.364Z,19.27
2022-12-14T20:22:58.802Z,19.63
2022-12-14T20:25:25.214Z,20.37
2022-12-14T20:27:52.597Z,18.87
2022-12-14T20:30:19.425Z,19.83
2022-12-14T20:32:49.329Z,18.47
2022-12-14T20:35:18.606Z,18.67
2022-12-14T20:37:45.779Z,19.10
2022-12-14T20:40:12.505Z,18.37
2022-12-14T20:42:38.997Z,17.20
2022-12-14T20:45:07.389Z,19.33
2022-12-14T20:47:34.207Z,19.23
2022-12-14T20:50:00.649Z,18.53
2022-12-14T20:52:27.171Z,17.80
2022-12-14T20:54:53.675Z,17.83
2022-12-14T20:57:20.119Z,18.33
2022-12-14T20:59:46.518Z,18.60
2022-12-14T21:02:17.398Z,18.00
2022-12-14T21:04:43.911Z,18.27
2022-12-14T21:07:10.376Z,17.10
2022-12-14T21:09:36.833Z,17.83
2022-12-14T21:12:21.569Z,16.87
2022-12-14T21:14:53.015Z,17.07
2022-12-14T21:17:20.992Z,18.23
2022-12-14T21:19:47.671Z,16.57
2022-12-14T21:22:16.395Z,17.97
2022-12-14T21:27:32.649Z,17.90
2022-12-14T21:30:00.409Z,19.37
2022-12-14T21:32:27.128Z,17.23
2022-12-14T21:34:53.591Z,17.90
2022-12-14T21:37:20.510Z,18.47
2022-12-14T21:39:53.917Z,17.80
2022-12-14T21:42:24.814Z,16.57
2022-12-14T21:44:52.694Z,16.70
2022-12-14T21:47:21.621Z,18.03
2022-12-14T21:49:48.165Z,17.70
2022-12-14T21:52:17.914Z,17.80
2022-12-14T21:54:44.700Z,15.83
2022-12-14T21:57:34.278Z,17.07
2022-12-14T22:00:01.025Z,16.83
2022-12-14T22:02:27.745Z,15.77
2022-12-14T22:04:56.301Z,15.83
2022-12-14T22:07:25.193Z,15.43
2022-12-14T22:09:51.811Z,16.20
2022-12-14T22:12:18.421Z,15.40
2022-12-14T22:14:44.912Z,16.03
2022-12-14T22:17:13.094Z,14.90
2022-12-14T22:19:39.889Z,16.00
2022-12-14T22:22:06.437Z,15.37
2022-12-14T22:24:32.952Z,16.33
2022-12-14T22:26:59.528Z,14.80
2022-12-14T22:29:25.947Z,15.17
2022-12-14T22:31:52.551Z,14.87
2022-12-14T22:34:21.475Z,13.90
2022-12-14T22:36:49.531Z,14.33
2022-12-14T22:39:17.506Z,14.80
2022-12-14T22:41:44.010Z,14.77
2022-12-14T22:44:11.751Z,14.53
2022-12-14T22:46:39.376Z,15.97
2022-12-14T22:49:05.771Z,14.60
2022-12-14T22:51:32.421Z,15.37
2022-12-14T22:53:58.888Z,15.10
2022-12-14T22:56:36.644Z,14.60
2022-12-14T22:59:36.353Z,13.97
2022-12-14T23:02:03.192Z,14.53
2022-12-14T23:04:29.914Z,14.77
2022-12-14T23:06:56.367Z,14.33
2022-12-14T23:09:41.346Z,14.23
2022-12-14T23:12:26.055Z,14.73
2022-12-14T23:15:11.209Z,14.97
2022-12-14T23:17:56.291Z,14.03
2022-12-14T23:20:41.503Z,14.50
2022-12-14T23:23:27.724Z,14.43
2022-12-14T23:26:12.943Z,14.20
2022-12-14T23:28:58.461Z,14.43
2022-12-14T23:31:43.501Z,13.63
2022-12-14T23:34:28.705Z,14.33
2022-12-14T23:37:19.512Z,15.43
2022-12-14T23:40:05.289Z,14.37
2022-12-14T23:42:50.458Z,13.93
2022-12-14T23:45:35.498Z,14.53
2022-12-14T23:48:20.589Z,14.60
2022-12-14T23:51:05.650Z,13.27
2022-12-14T23:53:50.780Z,13.23
2022-12-14T23:56:36.060Z,14.37
2022-12-14T23:59:22.790Z,14.47
